createdAt,value
2023-05-18T00:03:20.735Z,68.04
2023-05-18T00:11:44.405Z,67.89
2023-05-18T00:20:09.820Z,67.88
2023-05-18T00:28:32.730Z,67.81
2023-05-18T00:36:55.753Z,67.80
2023-05-18T00:45:19.178Z,67.78
2023-05-18T00:53:44.251Z,67.82
2023-05-18T01:02:09.847Z,67.83
2023-05-18T01:10:37.809Z,67.68
2023-05-18T01:19:14.303Z,67.68
2023-05-18T01:27:42.450Z,67.81
2023-05-18T01:36:05.969Z,67.75
2023-05-18T01:44:43.704Z,67.80
2023-05-18T01:53:14.707Z,67.86
2023-05-18T02:01:38.107Z,67.87
2023-05-18T02:10:01.256Z,67.67
2023-05-18T02:18:26.875Z,67.75
2023-05-18T02:26:50.456Z,67.71
2023-05-18T02:35:18.305Z,67.75
2023-05-18T02:43:41.559Z,67.89
2023-05-18T02:52:05.090Z,67.83
2023-05-18T03:00:30.635Z,67.69
2023-05-18T03:08:56.700Z,67.59
2023-05-18T03:17:26.557Z,67.80
2023-05-18T03:25:55.449Z,67.70
2023-05-18T03:34:19.388Z,67.79
2023-05-18T03:42:43.212Z,67.79
2023-05-18T03:51:06.658Z,67.85
2023-05-18T03:59:30.237Z,67.83
2023-05-18T04:07:53.251Z,68.00
2023-05-18T04:16:16.634Z,67.94
2023-05-18T04:24:41.456Z,68.08
2023-05-18T04:33:07.165Z,67.99
2023-05-18T04:41:30.493Z,68.14
2023-05-18T04:49:53.762Z,68.16
2023-05-18T04:58:17.097Z,68.05
2023-05-18T05:06:40.049Z,68.15
2023-05-18T05:15:03.462Z,68.21
2023-05-18T05:23:26.761Z,68.27
2023-05-18T05:31:50.293Z,68.35
2023-05-18T05:40:13.389Z,68.23
2023-05-18T05:48:39.559Z,68.24
2023-05-18T05:57:03.992Z,68.33
2023-05-18T06:05:27.257Z,68.21
2023-05-18T06:13:52.400Z,68.50
2023-05-18T06:22:15.690Z,68.30
2023-05-18T06:30:51.504Z,68.60
2023-05-18T06:39:25.587Z,68.41
2023-05-18T06:47:48.779Z,68.46
2023-05-18T06:56:13.168Z,68.61
2023-05-18T07:04:42.941Z,68.53
2023-05-18T07:13:50.340Z,68.45
2023-05-18T07:22:37.093Z,68.36
2023-05-18T07:31:01.067Z,68.49
2023-05-18T07:39:28.930Z,68.55
2023-05-18T07:47:52.161Z,68.27
2023-05-18T07:56:15.170Z,68.35
2023-05-18T08:04:38.277Z,68.33
2023-05-18T08:13:01.770Z,68.48
2023-05-18T08:21:24.836Z,68.47
2023-05-18T08:29:47.829Z,68.41
2023-05-18T08:38:11.587Z,68.37
2023-05-18T08:46:40.158Z,68.32
2023-05-18T08:55:09.475Z,68.36
2023-05-18T09:03:34.773Z,68.41
2023-05-18T09:11:58.886Z,68.37
2023-05-18T09:20:22.409Z,68.39
2023-05-18T09:28:46.714Z,68.49
2023-05-18T09:37:09.883Z,68.36
2023-05-18T09:45:32.927Z,68.28
2023-05-18T09:53:58.720Z,68.21
2023-05-18T10:02:25.333Z,68.23
2023-05-18T10:10:49.838Z,68.31
2023-05-18T10:19:13.342Z,68.25
2023-05-18T10:27:36.672Z,68.29
2023-05-18T10:36:03.482Z,68.17
2023-05-18T10:44:27.102Z,68.03
2023-05-18T10:52:51.807Z,68.22
2023-05-18T11:01:15.959Z,68.34
2023-05-18T11:09:42.922Z,68.35
2023-05-18T11:18:15.815Z,68.26
2023-05-18T11:26:41.002Z,68.08
2023-05-18T11:35:08.827Z,68.03
2023-05-18T11:43:31.951Z,67.97
2023-05-18T11:52:06.381Z,68.03
2023-05-18T12:00:31.449Z,68.15
2023-05-18T12:08:55.962Z,68.02
2023-05-18T12:17:19.220Z,67.94
2023-05-18T12:25:42.435Z,68.07
2023-05-18T12:34:05.532Z,67.90
2023-05-18T12:42:28.574Z,67.65
2023-05-18T12:50:51.686Z,67.68
2023-05-18T12:59:18.046Z,67.89
2023-05-18T13:07:45.509Z,67.65
2023-05-18T13:16:16.568Z,67.58
2023-05-18T13:24:42.868Z,67.77
2023-05-18T13:33:08.861Z,67.64
2023-05-18T13:41:31.806Z,67.53
2023-05-18T13:49:54.830Z,67.52
2023-05-18T13:58:18.229Z,67.54
2023-05-18T14:06:41.507Z,67.54
2023-05-18T14:15:05.436Z,67.44
2023-05-18T14:23:28.669Z,67.45
2023-05-18T14:31:51.612Z,67.46
2023-05-18T14:40:15.320Z,67.46
2023-05-18T14:48:38.529Z,67.42
2023-05-18T14:57:01.463Z,67.43
2023-05-18T15:05:24.397Z,67.41
2023-05-18T15:13:47.955Z,67.26
2023-05-18T15:22:10.834Z,67.41
2023-05-18T15:30:33.992Z,67.26
2023-05-18T15:38:57.239Z,67.16
2023-05-18T15:47:20.173Z,67.10
2023-05-18T15:55:43.064Z,67.18
2023-05-18T16:04:06.205Z,67.15
2023-05-18T16:12:29.120Z,67.22
2023-05-18T16:20:52.199Z,67.11
2023-05-18T16:29:15.130Z,67.18
2023-05-18T16:37:38.872Z,67.07
2023-05-18T16:46:02.427Z,67.16
2023-05-18T16:54:25.358Z,66.94
2023-05-18T17:02:48.492Z,67.04
2023-05-18T17:11:11.638Z,67.17
2023-05-18T17:19:39.319Z,67.03
2023-05-18T17:28:02.167Z,66.99
2023-05-18T17:36:25.781Z,67.12
2023-05-18T17:44:48.804Z,66.99
2023-05-18T17:53:12.002Z,67.23
2023-05-18T18:01:35.952Z,67.07
2023-05-18T18:09:59.207Z,66.96
2023-05-18T18:18:23.426Z,66.93
2023-05-18T18:26:46.633Z,67.05
2023-05-18T18:35:09.904Z,67.05
2023-05-18T18:43:35.272Z,67.14
2023-05-18T18:51:58.990Z,67.09
2023-05-18T19:00:22.543Z,67.13
2023-05-18T19:08:45.454Z,67.09
2023-05-18T19:17:08.396Z,67.21
2023-05-18T19:25:31.666Z,66.94
2023-05-18T19:33:56.177Z,67.15
2023-05-18T19:42:19.196Z,67.23
2023-05-18T19:50:42.050Z,67.25
2023-05-18T19:59:05.034Z,67.29
2023-05-18T20:07:28.088Z,67.16
2023-05-18T20:15:51.256Z,67.06
2023-05-18T20:24:14.376Z,67.20
2023-05-18T20:32:37.323Z,67.19
2023-05-18T20:41:01.642Z,67.25
2023-05-18T20:49:24.952Z,67.05
2023-05-18T20:57:50.989Z,67.27
2023-05-18T21:06:14.317Z,67.52
2023-05-18T21:14:37.733Z,67.27
2023-05-18T21:23:00.693Z,67.24
2023-05-18T21:31:23.742Z,67.37
2023-05-18T21:39:47.017Z,67.42
2023-05-18T21:48:09.906Z,67.31
2023-05-18T21:56:34.772Z,67.52
2023-05-18T22:04:57.845Z,67.34
2023-05-18T22:13:20.993Z,67.65
2023-05-18T22:21:44.219Z,67.52
2023-05-18T22:30:08.455Z,67.52
2023-05-18T22:38:31.406Z,67.41
2023-05-18T22:46:54.561Z,67.41
2023-05-18T22:55:18.013Z,67.47
2023-05-18T23:03:40.974Z,67.57
2023-05-18T23:12:04.628Z,67.66
2023-05-18T23:20:27.597Z,67.47
2023-05-18T23:28:50.495Z,67.73
2023-05-18T23:37:18.712Z,67.48
2023-05-18T23:45:41.884Z,67.62
2023-05-18T23:54:09.533Z,67.76
